sensor_id;sensor_type;location;lat;lon;timestamp;temperature;humidity
15574;DHT22;7888;46.748;8.102;2023-07-30T00:02:20;21.40;61.80
15574;DHT22;7888;46.748;8.102;2023-07-30T00:04:46;21.40;61.70
15574;DHT22;7888;46.748;8.102;2023-07-30T00:07:13;21.40;62.00
15574;DHT22;7888;46.748;8.102;2023-07-30T00:09:39;21.40;62.00
15574;DHT22;7888;46.748;8.102;2023-07-30T00:12:06;21.40;62.00
15574;DHT22;7888;46.748;8.102;2023-07-30T00:14:33;21.40;62.00
15574;DHT22;7888;46.748;8.102;2023-07-30T00:16:59;21.40;62.00
15574;DHT22;7888;46.748;8.102;2023-07-30T00:19:25;21.40;62.00
15574;DHT22;7888;46.748;8.102;2023-07-30T00:21:50;21.40;62.00
15574;DHT22;7888;46.748;8.102;2023-07-30T00:24:16;21.40;62.90
15574;DHT22;7888;46.748;8.102;2023-07-30T00:26:42;21.40;61.90
15574;DHT22;7888;46.748;8.102;2023-07-30T00:29:08;21.40;62.00
15574;DHT22;7888;46.748;8.102;2023-07-30T00:31:33;21.40;61.90
15574;DHT22;7888;46.748;8.102;2023-07-30T00:33:59;21.40;61.90
15574;DHT22;7888;46.748;8.102;2023-07-30T00:36:25;21.40;62.00
15574;DHT22;7888;46.748;8.102;2023-07-30T00:38:50;21.40;62.00
15574;DHT22;7888;46.748;8.102;2023-07-30T00:41:16;21.40;62.00
15574;DHT22;7888;46.748;8.102;2023-07-30T00:43:42;21.50;62.20
15574;DHT22;7888;46.748;8.102;2023-07-30T00:46:08;21.40;62.10
15574;DHT22;7888;46.748;8.102;2023-07-30T00:48:34;21.40;62.10
15574;DHT22;7888;46.748;8.102;2023-07-30T00:51:00;21.40;61.90
15574;DHT22;7888;46.748;8.102;2023-07-30T00:53:26;21.50;62.00
15574;DHT22;7888;46.748;8.102;2023-07-30T00:55:53;21.50;61.80
15574;DHT22;7888;46.748;8.102;2023-07-30T00:58:20;21.50;61.80
15574;DHT22;7888;46.748;8.102;2023-07-30T01:00:47;21.50;62.00
15574;DHT22;7888;46.748;8.102;2023-07-30T01:03:13;21.50;61.90
15574;DHT22;7888;46.748;8.102;2023-07-30T01:05:39;21.50;62.10
15574;DHT22;7888;46.748;8.102;2023-07-30T01:08:05;21.40;61.80
15574;DHT22;7888;46.748;8.102;2023-07-30T01:10:31;21.40;62.00
15574;DHT22;7888;46.748;8.102;2023-07-30T01:13:03;21.40;62.10
15574;DHT22;7888;46.748;8.102;2023-07-30T01:15:31;21.40;62.40
15574;DHT22;7888;46.748;8.102;2023-07-30T01:17:57;21.40;62.10
15574;DHT22;7888;46.748;8.102;2023-07-30T01:20:23;21.40;62.00
15574;DHT22;7888;46.748;8.102;2023-07-30T01:22:49;21.40;61.80
15574;DHT22;7888;46.748;8.102;2023-07-30T01:25:15;21.30;62.00
15574;DHT22;7888;46.748;8.102;2023-07-30T01:27:48;21.30;62.10
15574;DHT22;7888;46.748;8.102;2023-07-30T01:30:20;21.30;62.40
15574;DHT22;7888;46.748;8.102;2023-07-30T01:32:49;21.30;63.10
15574;DHT22;7888;46.748;8.102;2023-07-30T01:35:19;21.30;62.20
15574;DHT22;7888;46.748;8.102;2023-07-30T01:37:48;21.30;62.40
15574;DHT22;7888;46.748;8.102;2023-07-30T01:40:15;21.30;62.30
15574;DHT22;7888;46.748;8.102;2023-07-30T01:42:42;21.30;62.40
15574;DHT22;7888;46.748;8.102;2023-07-30T01:45:07;21.30;62.40
15574;DHT22;7888;46.748;8.102;2023-07-30T01:47:33;21.30;62.30
15574;DHT22;7888;46.748;8.102;2023-07-30T01:49:59;21.20;62.40
15574;DHT22;7888;46.748;8.102;2023-07-30T01:52:25;21.20;62.20
15574;DHT22;7888;46.748;8.102;2023-07-30T01:54:51;21.20;62.30
15574;DHT22;7888;46.748;8.102;2023-07-30T01:57:17;21.20;62.50
15574;DHT22;7888;46.748;8.102;2023-07-30T01:59:44;21.20;63.20
15574;DHT22;7888;46.748;8.102;2023-07-30T02:02:09;21.20;62.30
15574;DHT22;7888;46.748;8.102;2023-07-30T02:04:35;21.20;62.40
15574;DHT22;7888;46.748;8.102;2023-07-30T02:07:01;21.10;62.30
15574;DHT22;7888;46.748;8.102;2023-07-30T02:09:26;21.10;62.40
15574;DHT22;7888;46.748;8.102;2023-07-30T02:11:52;21.10;62.50
15574;DHT22;7888;46.748;8.102;2023-07-30T02:14:18;21.10;62.80
15574;DHT22;7888;46.748;8.102;2023-07-30T02:16:44;21.10;62.80
15574;DHT22;7888;46.748;8.102;2023-07-30T02:19:10;21.10;62.80
15574;DHT22;7888;46.748;8.102;2023-07-30T02:21:35;21.10;62.80
15574;DHT22;7888;46.748;8.102;2023-07-30T02:24:04;21.10;62.80
15574;DHT22;7888;46.748;8.102;2023-07-30T02:26:35;21.10;62.90
15574;DHT22;7888;46.748;8.102;2023-07-30T02:29:01;21.10;62.80
15574;DHT22;7888;46.748;8.102;2023-07-30T02:31:27;21.10;62.90
15574;DHT22;7888;46.748;8.102;2023-07-30T02:33:52;21.10;63.10
15574;DHT22;7888;46.748;8.102;2023-07-30T02:36:18;21.10;63.10
15574;DHT22;7888;46.748;8.102;2023-07-30T02:38:44;21.10;63.20
15574;DHT22;7888;46.748;8.102;2023-07-30T02:41:09;21.10;63.20
15574;DHT22;7888;46.748;8.102;2023-07-30T02:43:35;21.10;63.20
15574;DHT22;7888;46.748;8.102;2023-07-30T02:46:01;21.10;63.20
15574;DHT22;7888;46.748;8.102;2023-07-30T02:48:26;21.10;63.00
15574;DHT22;7888;46.748;8.102;2023-07-30T02:50:52;21.10;63.00
15574;DHT22;7888;46.748;8.102;2023-07-30T02:53:18;21.10;63.10
15574;DHT22;7888;46.748;8.102;2023-07-30T02:55:43;21.10;63.10
15574;DHT22;7888;46.748;8.102;2023-07-30T02:58:09;21.10;63.00
15574;DHT22;7888;46.748;8.102;2023-07-30T03:00:35;21.20;63.20
15574;DHT22;7888;46.748;8.102;2023-07-30T03:03:01;21.10;63.00
15574;DHT22;7888;46.748;8.102;2023-07-30T03:05:27;21.20;63.00
15574;DHT22;7888;46.748;8.102;2023-07-30T03:07:53;21.20;63.00
15574;DHT22;7888;46.748;8.102;2023-07-30T03:10:18;21.20;63.10
15574;DHT22;7888;46.748;8.102;2023-07-30T03:12:44;21.20;63.30
15574;DHT22;7888;46.748;8.102;2023-07-30T03:15:10;21.20;63.30
15574;DHT22;7888;46.748;8.102;2023-07-30T03:17:35;21.20;63.30
15574;DHT22;7888;46.748;8.102;2023-07-30T03:20:02;21.20;64.00
15574;DHT22;7888;46.748;8.102;2023-07-30T03:22:29;21.20;63.10
15574;DHT22;7888;46.748;8.102;2023-07-30T03:24:55;21.20;63.10
15574;DHT22;7888;46.748;8.102;2023-07-30T03:27:21;21.20;63.20
15574;DHT22;7888;46.748;8.102;2023-07-30T03:29:47;21.20;63.10
15574;DHT22;7888;46.748;8.102;2023-07-30T03:32:12;21.20;63.20
15574;DHT22;7888;46.748;8.102;2023-07-30T03:34:38;21.20;63.10
15574;DHT22;7888;46.748;8.102;2023-07-30T03:37:04;21.20;63.10
15574;DHT22;7888;46.748;8.102;2023-07-30T03:39:30;21.20;63.20
15574;DHT22;7888;46.748;8.102;2023-07-30T03:41:56;21.20;63.20
15574;DHT22;7888;46.748;8.102;2023-07-30T03:44:21;21.20;63.20
15574;DHT22;7888;46.748;8.102;2023-07-30T03:46:48;21.20;63.10
15574;DHT22;7888;46.748;8.102;2023-07-30T03:49:14;21.20;63.10
15574;DHT22;7888;46.748;8.102;2023-07-30T03:51:39;21.20;63.00
15574;DHT22;7888;46.748;8.102;2023-07-30T03:54:05;21.20;63.00
15574;DHT22;7888;46.748;8.102;2023-07-30T03:56:31;21.20;63.00
15574;DHT22;7888;46.748;8.102;2023-07-30T03:58:57;21.20;63.00
15574;DHT22;7888;46.748;8.102;2023-07-30T04:01:22;21.20;63.10
15574;DHT22;7888;46.748;8.102;2023-07-30T04:03:48;21.20;63.30
15574;DHT22;7888;46.748;8.102;2023-07-30T04:06:14;21.20;63.20
15574;DHT22;7888;46.748;8.102;2023-07-30T04:08:40;21.10;63.10
15574;DHT22;7888;46.748;8.102;2023-07-30T04:11:05;21.10;63.20
15574;DHT22;7888;46.748;8.102;2023-07-30T04:13:31;21.10;63.30
15574;DHT22;7888;46.748;8.102;2023-07-30T04:15:57;21.10;63.50
15574;DHT22;7888;46.748;8.102;2023-07-30T04:18:23;21.10;63.70
15574;DHT22;7888;46.748;8.102;2023-07-30T04:20:48;21.10;64.60
15574;DHT22;7888;46.748;8.102;2023-07-30T04:23:14;21.10;63.80
15574;DHT22;7888;46.748;8.102;2023-07-30T04:25:40;21.10;63.80
15574;DHT22;7888;46.748;8.102;2023-07-30T04:28:06;21.10;64.00
15574;DHT22;7888;46.748;8.102;2023-07-30T04:30:32;21.10;64.00
15574;DHT22;7888;46.748;8.102;2023-07-30T04:32:58;21.10;64.00
15574;DHT22;7888;46.748;8.102;2023-07-30T04:35:24;21.20;64.00
15574;DHT22;7888;46.748;8.102;2023-07-30T04:37:49;21.20;63.90
15574;DHT22;7888;46.748;8.102;2023-07-30T04:40:15;21.20;63.80
15574;DHT22;7888;46.748;8.102;2023-07-30T04:42:41;21.20;63.60
15574;DHT22;7888;46.748;8.102;2023-07-30T04:45:07;21.10;63.50
15574;DHT22;7888;46.748;8.102;2023-07-30T04:47:33;21.10;63.70
15574;DHT22;7888;46.748;8.102;2023-07-30T04:49:59;21.10;63.80
15574;DHT22;7888;46.748;8.102;2023-07-30T04:52:24;21.00;63.70
15574;DHT22;7888;46.748;8.102;2023-07-30T04:54:50;21.00;63.80
15574;DHT22;7888;46.748;8.102;2023-07-30T04:57:16;21.00;64.00
15574;DHT22;7888;46.748;8.102;2023-07-30T04:59:41;21.00;63.90
15574;DHT22;7888;46.748;8.102;2023-07-30T05:02:07;21.00;63.80
15574;DHT22;7888;46.748;8.102;2023-07-30T05:04:33;21.00;63.60
15574;DHT22;7888;46.748;8.102;2023-07-30T05:06:59;21.00;63.70
15574;DHT22;7888;46.748;8.102;2023-07-30T05:09:24;20.90;63.60
15574;DHT22;7888;46.748;8.102;2023-07-30T05:11:50;20.90;63.70
15574;DHT22;7888;46.748;8.102;2023-07-30T05:14:16;20.90;63.80
15574;DHT22;7888;46.748;8.102;2023-07-30T05:16:41;20.90;64.00
15574;DHT22;7888;46.748;8.102;2023-07-30T05:19:07;20.90;64.10
15574;DHT22;7888;46.748;8.102;2023-07-30T05:21:33;20.90;64.20
15574;DHT22;7888;46.748;8.102;2023-07-30T05:24:00;21.00;64.10
15574;DHT22;7888;46.748;8.102;2023-07-30T05:26:25;21.00;64.20
15574;DHT22;7888;46.748;8.102;2023-07-30T05:28:51;21.00;64.20
15574;DHT22;7888;46.748;8.102;2023-07-30T05:31:17;21.00;64.20
15574;DHT22;7888;46.748;8.102;2023-07-30T05:33:42;21.00;64.20
15574;DHT22;7888;46.748;8.102;2023-07-30T05:36:08;21.00;65.10
15574;DHT22;7888;46.748;8.102;2023-07-30T05:38:34;21.00;64.20
15574;DHT22;7888;46.748;8.102;2023-07-30T05:41:00;21.00;64.20
15574;DHT22;7888;46.748;8.102;2023-07-30T05:43:25;21.00;64.30
15574;DHT22;7888;46.748;8.102;2023-07-30T05:45:51;21.10;64.30
15574;DHT22;7888;46.748;8.102;2023-07-30T05:48:17;21.10;64.60
15574;DHT22;7888;46.748;8.102;2023-07-30T05:50:43;21.10;70.20
15574;DHT22;7888;46.748;8.102;2023-07-30T05:53:08;21.20;70.50
15574;DHT22;7888;46.748;8.102;2023-07-30T05:55:34;21.20;70.60
15574;DHT22;7888;46.748;8.102;2023-07-30T05:58:00;21.30;70.60
15574;DHT22;7888;46.748;8.102;2023-07-30T06:00:26;21.30;70.70
15574;DHT22;7888;46.748;8.102;2023-07-30T06:02:51;21.40;70.80
15574;DHT22;7888;46.748;8.102;2023-07-30T06:05:17;21.40;70.50
15574;DHT22;7888;46.748;8.102;2023-07-30T06:07:43;21.50;70.40
15574;DHT22;7888;46.748;8.102;2023-07-30T06:10:09;21.50;70.30
15574;DHT22;7888;46.748;8.102;2023-07-30T06:12:35;21.50;70.10
15574;DHT22;7888;46.748;8.102;2023-07-30T06:15:00;21.50;70.00
15574;DHT22;7888;46.748;8.102;2023-07-30T06:17:26;21.50;69.60
15574;DHT22;7888;46.748;8.102;2023-07-30T06:19:52;21.50;69.80
15574;DHT22;7888;46.748;8.102;2023-07-30T06:22:17;21.50;69.70
15574;DHT22;7888;46.748;8.102;2023-07-30T06:24:44;21.60;69.60
15574;DHT22;7888;46.748;8.102;2023-07-30T06:27:09;21.60;69.50
15574;DHT22;7888;46.748;8.102;2023-07-30T06:29:36;21.60;69.80
15574;DHT22;7888;46.748;8.102;2023-07-30T06:32:02;21.60;70.20
15574;DHT22;7888;46.748;8.102;2023-07-30T06:34:27;21.70;70.40
15574;DHT22;7888;46.748;8.102;2023-07-30T06:36:53;21.70;70.50
15574;DHT22;7888;46.748;8.102;2023-07-30T06:39:19;21.80;70.70
15574;DHT22;7888;46.748;8.102;2023-07-30T06:41:46;21.90;71.10
15574;DHT22;7888;46.748;8.102;2023-07-30T06:44:11;22.00;71.10
15574;DHT22;7888;46.748;8.102;2023-07-30T06:46:37;22.10;71.00
15574;DHT22;7888;46.748;8.102;2023-07-30T06:49:03;22.20;70.40
15574;DHT22;7888;46.748;8.102;2023-07-30T06:51:28;22.30;69.80
15574;DHT22;7888;46.748;8.102;2023-07-30T06:53:55;22.40;69.50
15574;DHT22;7888;46.748;8.102;2023-07-30T06:56:20;22.50;69.20
15574;DHT22;7888;46.748;8.102;2023-07-30T06:58:46;22.60;69.10
15574;DHT22;7888;46.748;8.102;2023-07-30T07:01:12;22.60;68.70
15574;DHT22;7888;46.748;8.102;2023-07-30T07:03:38;22.70;68.50
15574;DHT22;7888;46.748;8.102;2023-07-30T07:06:04;22.80;68.20
15574;DHT22;7888;46.748;8.102;2023-07-30T07:08:30;22.90;67.80
15574;DHT22;7888;46.748;8.102;2023-07-30T07:10:56;22.90;66.90
15574;DHT22;7888;46.748;8.102;2023-07-30T07:13:21;23.00;65.20
15574;DHT22;7888;46.748;8.102;2023-07-30T07:15:47;23.10;64.80
15574;DHT22;7888;46.748;8.102;2023-07-30T07:18:13;23.20;64.00
15574;DHT22;7888;46.748;8.102;2023-07-30T07:20:39;23.20;64.40
15574;DHT22;7888;46.748;8.102;2023-07-30T07:23:04;23.30;63.40
15574;DHT22;7888;46.748;8.102;2023-07-30T07:25:30;23.40;63.60
15574;DHT22;7888;46.748;8.102;2023-07-30T07:27:56;23.40;63.10
15574;DHT22;7888;46.748;8.102;2023-07-30T07:30:22;23.50;63.30
15574;DHT22;7888;46.748;8.102;2023-07-30T07:32:47;23.60;62.40
15574;DHT22;7888;46.748;8.102;2023-07-30T07:35:18;23.70;62.00
15574;DHT22;7888;46.748;8.102;2023-07-30T07:37:44;23.80;61.20
15574;DHT22;7888;46.748;8.102;2023-07-30T07:40:10;23.90;61.10
15574;DHT22;7888;46.748;8.102;2023-07-30T07:42:37;23.90;60.90
15574;DHT22;7888;46.748;8.102;2023-07-30T07:45:05;24.00;59.80
15574;DHT22;7888;46.748;8.102;2023-07-30T07:47:32;24.10;59.50
15574;DHT22;7888;46.748;8.102;2023-07-30T07:49:57;24.30;60.40
15574;DHT22;7888;46.748;8.102;2023-07-30T07:52:23;24.40;60.40
15574;DHT22;7888;46.748;8.102;2023-07-30T07:54:49;24.50;60.70
15574;DHT22;7888;46.748;8.102;2023-07-30T07:57:14;24.70;60.40
15574;DHT22;7888;46.748;8.102;2023-07-30T07:59:40;24.80;59.80
15574;DHT22;7888;46.748;8.102;2023-07-30T08:02:12;24.90;59.50
15574;DHT22;7888;46.748;8.102;2023-07-30T08:04:39;25.00;59.00
15574;DHT22;7888;46.748;8.102;2023-07-30T08:07:05;25.10;58.40
15574;DHT22;7888;46.748;8.102;2023-07-30T08:09:31;25.10;58.40
15574;DHT22;7888;46.748;8.102;2023-07-30T08:11:57;25.10;58.10
15574;DHT22;7888;46.748;8.102;2023-07-30T08:14:24;25.10;58.00
15574;DHT22;7888;46.748;8.102;2023-07-30T08:16:49;25.20;58.20
15574;DHT22;7888;46.748;8.102;2023-07-30T08:19:15;25.20;58.40
15574;DHT22;7888;46.748;8.102;2023-07-30T08:21:41;25.20;58.90
15574;DHT22;7888;46.748;8.102;2023-07-30T08:24:06;25.30;58.90
15574;DHT22;7888;46.748;8.102;2023-07-30T08:26:32;25.30;58.80
15574;DHT22;7888;46.748;8.102;2023-07-30T08:28:58;25.30;58.20
15574;DHT22;7888;46.748;8.102;2023-07-30T08:31:24;25.20;58.00
15574;DHT22;7888;46.748;8.102;2023-07-30T08:33:50;25.20;57.60
15574;DHT22;7888;46.748;8.102;2023-07-30T08:36:15;25.20;57.60
15574;DHT22;7888;46.748;8.102;2023-07-30T08:38:41;25.10;57.40
15574;DHT22;7888;46.748;8.102;2023-07-30T08:41:07;25.00;57.50
15574;DHT22;7888;46.748;8.102;2023-07-30T08:43:34;25.00;57.70
15574;DHT22;7888;46.748;8.102;2023-07-30T08:46:00;24.90;57.80
15574;DHT22;7888;46.748;8.102;2023-07-30T08:48:27;24.90;57.70
15574;DHT22;7888;46.748;8.102;2023-07-30T08:50:56;24.90;58.40
